ENAN/ANX METAR and TAF weather

Enter ICAO airport designator
Station Type Date Time Source
ENAN METAR 2020/05/30 04:20 UTC NOAA

ENAN 300420Z AUTO 24010KT 9999 OVC011/// 07/05 Q1033


Station Type Date Time Source
ENAN Decoded METAR 2020/05/30 04:20 UTC NOAA

Andoya, Norway (ENAN) 69-18N 016-09E 14M
May 30, 2020 - 12:20 AM EDT / 2020.05.30 0420 UTC
Wind: from the WSW (240 degrees) at 12 MPH (10 KT):0
Visibility: greater than 7 mile(s):0
Sky conditions: overcast
Temperature: 44 F (7 C)
Dew Point: 41 F (5 C)
Relative Humidity: 87%
Pressure (altimeter): 30.50 in. Hg (1033 hPa)
ob: ENAN 300420Z AUTO 24010KT 9999 OVC011/// 07/05 Q1033
cycle: 4

Station Type Date Time Source
ENAN TAF 2020/05/29 18:57 UTC NOAA

TAF TAF ENAN 291700Z 2918/3018 28015KT 9999 -DZRA FEW010 BKN018
TEMPO 2918/3018 BKN008 PROB40
TEMPO 2918/3006 2500 BR
BECMG 2922/3001 22008KT PROB40
TEMPO 3014/3018 2500 BR

Example: see airport list